createdAt,value
2023-04-27T00:00:57.831Z,101122.94
2023-04-27T00:03:25.036Z,101120.31
2023-04-27T00:05:52.669Z,101125.09
2023-04-27T00:08:19.806Z,101117.78
2023-04-27T00:10:46.866Z,101120.13
2023-04-27T00:13:13.915Z,101111.94
2023-04-27T00:15:41.115Z,101114.66
2023-04-27T00:18:08.337Z,101107.53
2023-04-27T00:20:35.649Z,101119.28
2023-04-27T00:23:02.764Z,101113.91
2023-04-27T00:25:29.884Z,101116.97
2023-04-27T00:27:57.032Z,101116.97
2023-04-27T00:30:24.069Z,101112.88
2023-04-27T00:32:51.151Z,101115.84
2023-04-27T00:35:18.303Z,101119.78
2023-04-27T00:37:45.867Z,101118.00
2023-04-27T00:40:13.496Z,101122.00
2023-04-27T00:42:40.556Z,101119.78
2023-04-27T00:45:08.785Z,101124.28
2023-04-27T00:47:36.579Z,101119.69
2023-04-27T00:50:08.429Z,101120.06
2023-04-27T00:52:37.462Z,101130.22
2023-04-27T00:55:06.174Z,101131.06
2023-04-27T00:57:34.420Z,101131.63
2023-04-27T01:00:02.263Z,101136.19
2023-04-27T01:02:30.486Z,101130.03
2023-04-27T01:04:57.834Z,101135.06
2023-04-27T01:07:27.746Z,101133.28
2023-04-27T01:09:54.940Z,101137.06
2023-04-27T01:12:22.510Z,101137.03
2023-04-27T01:14:49.555Z,101135.56
2023-04-27T01:17:18.192Z,101136.41
2023-04-27T01:19:45.901Z,101138.63
2023-04-27T01:22:15.159Z,101142.00
2023-04-27T01:24:42.250Z,101141.22
2023-04-27T01:27:09.394Z,101140.19
2023-04-27T01:29:36.435Z,101144.78
2023-04-27T01:32:03.833Z,101145.34
2023-04-27T01:34:31.022Z,101156.81
2023-04-27T01:37:00.179Z,101148.16
2023-04-27T01:39:27.280Z,101152.69
2023-04-27T01:41:55.214Z,101153.78
2023-04-27T01:44:24.551Z,101160.78
2023-04-27T01:46:51.830Z,101154.06
2023-04-27T01:49:18.930Z,101153.56
2023-04-27T01:51:46.061Z,101159.09
2023-04-27T01:54:13.169Z,101160.94
2023-04-27T01:56:40.478Z,101162.25
2023-04-27T01:59:07.569Z,101166.16
2023-04-27T02:01:34.679Z,101163.59
2023-04-27T02:04:01.896Z,101166.63
2023-04-27T02:06:29.069Z,101177.75
2023-04-27T02:08:56.149Z,101169.19
2023-04-27T02:11:23.313Z,101167.38
2023-04-27T02:13:50.421Z,101167.84
2023-04-27T02:16:17.460Z,101170.41
2023-04-27T02:18:44.678Z,101173.78
2023-04-27T02:21:12.430Z,101174.53
2023-04-27T02:23:39.537Z,101184.31
2023-04-27T02:26:06.661Z,101183.97
2023-04-27T02:28:33.768Z,101180.28
2023-04-27T02:31:01.382Z,101188.09
2023-04-27T02:33:28.404Z,101186.72
2023-04-27T02:35:55.650Z,101188.00
2023-04-27T02:38:22.881Z,101185.09
2023-04-27T02:40:55.105Z,101185.09
2023-04-27T02:43:22.800Z,101197.78
2023-04-27T02:45:49.911Z,101185.00
2023-04-27T02:48:17.072Z,101192.09
2023-04-27T02:50:45.429Z,101194.25
2023-04-27T02:53:12.990Z,101185.34
2023-04-27T02:55:48.165Z,101199.06
2023-04-27T02:58:16.759Z,101195.13
2023-04-27T03:00:45.256Z,101203.16
2023-04-27T03:03:12.963Z,101192.16
2023-04-27T03:05:40.116Z,101202.41
2023-04-27T03:08:07.165Z,101201.78
2023-04-27T03:10:34.198Z,101203.44
2023-04-27T03:13:01.366Z,101202.66
2023-04-27T03:15:28.445Z,101196.16
2023-04-27T03:17:55.835Z,101201.97
2023-04-27T03:20:23.081Z,101197.03
2023-04-27T03:22:50.441Z,101214.28
2023-04-27T03:25:17.631Z,101203.59
2023-04-27T03:27:44.705Z,101205.03
2023-04-27T03:30:12.777Z,101219.13
2023-04-27T03:32:39.964Z,101214.28
2023-04-27T03:35:08.027Z,101214.78
2023-04-27T03:37:35.440Z,101221.09
2023-04-27T03:40:02.555Z,101223.34
2023-04-27T03:42:29.696Z,101219.56
2023-04-27T03:44:56.916Z,101224.19
2023-04-27T03:47:24.512Z,101228.91
2023-04-27T03:49:51.957Z,101231.03
2023-04-27T03:52:21.027Z,101230.41
2023-04-27T03:54:48.274Z,101231.44
2023-04-27T03:57:15.946Z,101233.63
2023-04-27T03:59:42.947Z,101235.22
2023-04-27T04:02:11.613Z,101237.41
2023-04-27T04:04:39.095Z,101236.16
2023-04-27T04:07:06.399Z,101236.94
2023-04-27T04:09:33.797Z,101235.06
2023-04-27T04:12:01.894Z,101238.25
2023-04-27T04:14:28.977Z,101251.47
2023-04-27T04:16:56.239Z,101247.91
2023-04-27T04:19:23.840Z,101262.41
2023-04-27T04:21:51.088Z,101258.72
2023-04-27T04:24:18.716Z,101253.03
2023-04-27T04:26:48.753Z,101264.34
2023-04-27T04:29:16.169Z,101262.25
2023-04-27T04:31:43.588Z,101272.91
2023-04-27T04:34:11.014Z,101266.00
2023-04-27T04:36:38.151Z,101258.91
2023-04-27T04:39:05.315Z,101271.22
2023-04-27T04:41:33.011Z,101272.50
2023-04-27T04:44:03.147Z,101270.22
2023-04-27T04:46:30.624Z,101265.56
2023-04-27T04:48:57.782Z,101262.72
2023-04-27T04:51:24.938Z,101275.84
2023-04-27T04:53:52.027Z,101269.72
2023-04-27T04:56:19.154Z,101267.88
2023-04-27T04:58:46.445Z,101272.00
2023-04-27T05:01:16.466Z,101266.38
2023-04-27T05:03:44.170Z,101280.72
2023-04-27T05:06:11.841Z,101277.41
2023-04-27T05:08:38.991Z,101273.00
2023-04-27T05:11:06.229Z,101278.53
2023-04-27T05:13:33.603Z,101280.34
2023-04-27T05:16:04.842Z,101272.91
2023-04-27T05:18:32.669Z,101282.00
2023-04-27T05:20:59.819Z,101288.00
2023-04-27T05:23:27.735Z,101285.25
2023-04-27T05:25:57.771Z,101278.22
2023-04-27T05:28:24.803Z,101284.06
2023-04-27T05:30:52.674Z,101286.00
2023-04-27T05:33:20.707Z,101276.06
2023-04-27T05:35:47.738Z,101280.19
2023-04-27T05:38:17.397Z,101275.41
2023-04-27T05:40:44.536Z,101289.31
2023-04-27T05:43:11.629Z,101284.34
2023-04-27T05:45:44.224Z,101283.75
2023-04-27T05:48:11.362Z,101289.41
2023-04-27T05:50:38.736Z,101281.22
2023-04-27T05:53:07.153Z,101289.72
2023-04-27T05:55:34.493Z,101289.63
2023-04-27T05:58:08.654Z,101285.97
2023-04-27T06:00:36.738Z,101287.88
2023-04-27T06:03:04.030Z,101290.84
2023-04-27T06:05:31.584Z,101286.97
2023-04-27T06:07:58.762Z,101288.34
2023-04-27T06:10:25.947Z,101292.09
2023-04-27T06:12:54.430Z,101300.84
2023-04-27T06:15:21.756Z,101310.56
2023-04-27T06:17:48.991Z,101309.72
2023-04-27T06:20:16.188Z,101303.00
2023-04-27T06:22:43.689Z,101299.88
2023-04-27T06:25:11.130Z,101306.97
2023-04-27T06:27:38.592Z,101316.53
2023-04-27T06:30:06.864Z,101307.91
2023-04-27T06:32:33.953Z,101312.25
2023-04-27T06:35:01.539Z,101305.97
2023-04-27T06:37:28.814Z,101310.50
2023-04-27T06:39:56.180Z,101316.25
2023-04-27T06:42:23.203Z,101324.03
2023-04-27T06:44:56.218Z,101316.56
2023-04-27T06:47:23.384Z,101317.03
2023-04-27T06:49:50.924Z,101315.25
2023-04-27T06:52:18.413Z,101327.94
2023-04-27T06:54:45.595Z,101320.00
2023-04-27T06:57:13.800Z,101321.00
2023-04-27T06:59:40.878Z,101323.50
2023-04-27T07:02:08.040Z,101323.75
2023-04-27T07:04:36.614Z,101317.03
2023-04-27T07:07:03.965Z,101319.63
2023-04-27T07:09:31.283Z,101321.22
2023-04-27T07:11:58.895Z,101322.47
2023-04-27T07:14:26.195Z,101316.66
2023-04-27T07:16:53.383Z,101328.53
2023-04-27T07:19:20.428Z,101326.22
2023-04-27T07:21:48.122Z,101315.53
2023-04-27T07:24:17.803Z,101322.91
2023-04-27T07:26:45.534Z,101320.03
2023-04-27T07:29:25.564Z,101323.09
2023-04-27T07:31:55.758Z,101323.47
2023-04-27T07:34:24.043Z,101320.59
2023-04-27T07:36:54.376Z,101321.50
2023-04-27T07:39:21.819Z,101318.19
2023-04-27T07:41:50.044Z,101328.88
2023-04-27T07:44:19.467Z,101320.97
2023-04-27T07:46:48.775Z,101327.78
2023-04-27T07:49:16.649Z,101330.41
2023-04-27T07:51:43.737Z,101338.00
2023-04-27T07:54:12.827Z,101338.63
2023-04-27T07:56:43.185Z,101344.47
2023-04-27T07:59:10.501Z,101345.94
2023-04-27T08:01:38.202Z,101334.13
2023-04-27T08:04:06.141Z,101335.28
2023-04-27T08:06:34.336Z,101335.34
2023-04-27T08:09:04.081Z,101348.59
2023-04-27T08:11:32.082Z,101326.59
2023-04-27T08:13:59.232Z,101322.50
2023-04-27T08:16:35.249Z,101332.09
2023-04-27T08:19:15.658Z,101323.63
2023-04-27T08:21:43.072Z,101341.41
2023-04-27T08:24:15.685Z,101346.41
2023-04-27T08:26:42.907Z,101343.06
2023-04-27T08:29:27.011Z,101342.28
2023-04-27T08:32:00.023Z,101340.03
2023-04-27T08:34:28.970Z,101345.66
2023-04-27T08:36:56.992Z,101337.78
2023-04-27T08:39:32.092Z,101345.75
2023-04-27T08:42:25.501Z,101343.31
2023-04-27T08:44:52.594Z,101351.91
2023-04-27T08:47:25.759Z,101343.22
2023-04-27T08:50:05.311Z,101346.19
2023-04-27T08:52:32.561Z,101340.84
2023-04-27T08:55:02.602Z,101352.59
2023-04-27T08:57:32.182Z,101345.28
2023-04-27T09:00:00.892Z,101343.78
2023-04-27T09:02:29.983Z,101347.63
2023-04-27T09:04:57.327Z,101342.25
2023-04-27T09:07:27.352Z,101348.31
2023-04-27T09:10:34.594Z,101339.81
2023-04-27T09:13:02.111Z,101346.22
2023-04-27T09:15:32.189Z,101340.25
2023-04-27T09:17:59.732Z,101336.44
2023-04-27T09:20:27.556Z,101338.13
2023-04-27T09:22:55.949Z,101328.81
2023-04-27T09:25:32.494Z,101331.69
2023-04-27T09:28:01.307Z,101334.13
2023-04-27T09:30:30.194Z,101331.94
2023-04-27T09:33:04.071Z,101342.91
2023-04-27T09:35:34.139Z,101333.00
2023-04-27T09:38:01.991Z,101325.22
2023-04-27T09:40:31.232Z,101332.00
2023-04-27T09:43:01.947Z,101334.34
2023-04-27T09:45:29.965Z,101335.88
2023-04-27T09:48:03.783Z,101321.06
2023-04-27T09:50:38.418Z,101334.88
2023-04-27T09:53:36.938Z,101330.88
2023-04-27T09:56:50.536Z,101330.09
2023-04-27T09:59:45.463Z,101326.22
2023-04-27T10:02:25.168Z,101318.22
2023-04-27T10:05:46.161Z,101322.25
2023-04-27T10:08:13.616Z,101326.47
2023-04-27T10:10:50.710Z,101323.63
2023-04-27T10:13:29.743Z,101301.94
2023-04-27T10:15:56.837Z,101309.41
2023-04-27T10:18:31.786Z,101308.81
2023-04-27T10:21:11.127Z,101311.94
2023-04-27T10:28:04.610Z,101305.28
2023-04-27T10:30:44.013Z,101309.16
2023-04-27T10:33:15.932Z,101300.28
2023-04-27T10:35:56.264Z,101300.72
2023-04-27T10:38:30.979Z,101296.22
2023-04-27T10:41:06.669Z,101300.72
2023-04-27T10:43:38.803Z,101292.94
2023-04-27T10:46:15.013Z,101301.66
2023-04-27T10:48:44.201Z,101294.44
2023-04-27T10:51:21.733Z,101287.47
2023-04-27T10:54:04.386Z,101297.03
2023-04-27T10:56:33.831Z,101301.69
2023-04-27T10:59:08.725Z,101302.72
2023-04-27T11:01:37.780Z,101302.44
2023-04-27T11:04:08.486Z,101302.16
2023-04-27T11:06:45.960Z,101308.69
2023-04-27T11:09:30.003Z,101311.22
2023-04-27T11:12:07.935Z,101313.84
2023-04-27T11:14:37.248Z,101309.84
2023-04-27T11:17:13.204Z,101308.91
2023-04-27T11:19:54.268Z,101306.09
2023-04-27T11:22:24.586Z,101298.91
2023-04-27T11:25:16.893Z,101313.88
2023-04-27T11:27:47.637Z,101311.38
2023-04-27T11:30:24.936Z,101314.75
2023-04-27T11:33:11.407Z,101315.63
2023-04-27T11:35:42.782Z,101314.22
2023-04-27T11:38:18.548Z,101309.72
2023-04-27T11:40:48.181Z,101319.09
2023-04-27T11:43:18.120Z,101320.03
2023-04-27T11:45:45.615Z,101323.16
2023-04-27T11:48:16.791Z,101324.72
2023-04-27T11:50:51.799Z,101325.59
2023-04-27T11:53:33.720Z,101326.94
2023-04-27T11:56:07.781Z,101329.66
2023-04-27T11:58:40.496Z,101334.78
2023-04-27T12:01:13.158Z,101333.78
2023-04-27T12:03:43.694Z,101333.34
2023-04-27T12:06:32.187Z,101340.91
2023-04-27T12:09:06.030Z,101336.97
2023-04-27T12:11:33.507Z,101345.00
2023-04-27T12:14:03.863Z,101338.41
2023-04-27T12:16:31.181Z,101341.34
2023-04-27T12:18:58.382Z,101346.03
2023-04-27T12:21:26.195Z,101346.69
2023-04-27T12:24:04.326Z,101349.47
2023-04-27T12:26:31.763Z,101343.91
2023-04-27T12:28:59.126Z,101337.53
2023-04-27T12:31:31.799Z,101350.19
2023-04-27T12:33:59.191Z,101348.41
2023-04-27T12:36:29.925Z,101343.25
2023-04-27T12:39:11.917Z,101352.69
2023-04-27T12:41:39.414Z,101333.56
2023-04-27T12:44:06.869Z,101348.34
2023-04-27T12:46:35.508Z,101342.00
2023-04-27T12:49:08.540Z,101345.47
2023-04-27T12:51:41.747Z,101343.63
2023-04-27T12:54:11.234Z,101342.97
2023-04-27T12:56:40.738Z,101345.19
2023-04-27T12:59:07.853Z,101346.81
2023-04-27T13:01:35.101Z,101342.13
2023-04-27T13:04:05.882Z,101353.53
2023-04-27T13:06:33.404Z,101353.59
2023-04-27T13:09:01.035Z,101345.00
2023-04-27T13:11:28.380Z,101340.94
2023-04-27T13:13:56.000Z,101346.47
2023-04-27T13:16:25.675Z,101335.56
2023-04-27T13:18:55.523Z,101341.00
2023-04-27T13:21:23.427Z,101342.06
2023-04-27T13:23:53.580Z,101333.41
2023-04-27T13:26:21.148Z,101335.56
2023-04-27T13:28:48.915Z,101336.72
2023-04-27T13:31:16.171Z,101338.91
2023-04-27T13:33:44.649Z,101333.25
2023-04-27T13:36:13.602Z,101337.22
2023-04-27T13:38:41.222Z,101327.31
2023-04-27T13:41:09.294Z,101329.88
2023-04-27T13:43:38.200Z,101334.25
2023-04-27T13:46:05.575Z,101322.53
2023-04-27T13:48:33.170Z,101327.50
2023-04-27T13:51:00.583Z,101335.56
2023-04-27T13:53:27.923Z,101334.72
2023-04-27T13:55:58.153Z,101338.53
2023-04-27T13:58:29.044Z,101330.09
2023-04-27T14:00:57.677Z,101328.94
2023-04-27T14:03:25.142Z,101326.66
2023-04-27T14:05:52.416Z,101333.22
2023-04-27T14:08:19.902Z,101331.06
2023-04-27T14:10:49.668Z,101333.25
2023-04-27T14:13:28.908Z,101333.53
2023-04-27T14:15:56.026Z,101333.09
2023-04-27T14:18:31.742Z,101341.31
2023-04-27T14:21:13.153Z,101336.25
2023-04-27T14:23:43.362Z,101337.28
2023-04-27T14:26:10.644Z,101330.34
2023-04-27T14:28:37.834Z,101338.00
2023-04-27T14:31:05.004Z,101330.13
2023-04-27T14:33:32.396Z,101338.09
2023-04-27T14:36:00.221Z,101334.56
2023-04-27T14:38:27.591Z,101332.69
2023-04-27T14:40:54.708Z,101332.53
2023-04-27T14:43:21.883Z,101332.00
2023-04-27T14:45:52.671Z,101334.88
2023-04-27T14:48:23.310Z,101325.38
2023-04-27T14:50:53.033Z,101328.72
2023-04-27T14:53:23.014Z,101322.94
2023-04-27T14:55:50.329Z,101329.84
2023-04-27T14:58:17.392Z,101322.41
2023-04-27T15:00:44.558Z,101323.31
2023-04-27T15:03:11.856Z,101324.72
2023-04-27T15:05:39.221Z,101327.34
2023-04-27T15:08:06.505Z,101326.72
2023-04-27T15:10:33.703Z,101319.53
2023-04-27T15:13:02.558Z,101318.22
2023-04-27T15:15:30.038Z,101325.06
2023-04-27T15:17:58.230Z,101321.66
2023-04-27T15:20:25.573Z,101324.53
2023-04-27T15:22:53.002Z,101328.22
2023-04-27T15:25:20.324Z,101322.16
2023-04-27T15:27:47.799Z,101328.66
2023-04-27T15:30:16.409Z,101320.28
2023-04-27T15:32:43.530Z,101334.38
2023-04-27T15:35:10.821Z,101331.28
2023-04-27T15:37:37.957Z,101332.84
2023-04-27T15:40:09.899Z,101323.13
2023-04-27T15:42:37.773Z,101327.38
2023-04-27T15:45:07.068Z,101325.69
2023-04-27T15:47:36.086Z,101316.44
2023-04-27T15:50:03.463Z,101312.13
2023-04-27T15:52:30.672Z,101315.97
2023-04-27T15:54:57.739Z,101314.59
2023-04-27T15:57:24.861Z,101318.06
2023-04-27T15:59:52.472Z,101313.88
2023-04-27T16:02:20.019Z,101303.50
2023-04-27T16:04:48.774Z,101297.50
2023-04-27T16:07:15.893Z,101303.78
2023-04-27T16:09:43.015Z,101297.47
2023-04-27T16:12:10.277Z,101297.31
2023-04-27T16:14:38.073Z,101292.72
2023-04-27T16:17:05.128Z,101304.66
2023-04-27T16:19:32.172Z,101299.94
2023-04-27T16:22:01.213Z,101296.88
2023-04-27T16:24:31.399Z,101293.00
2023-04-27T16:26:58.685Z,101287.03
2023-04-27T16:29:26.076Z,101280.81
2023-04-27T16:31:53.923Z,101283.47
2023-04-27T16:34:24.013Z,101285.22
2023-04-27T16:36:51.179Z,101274.34
2023-04-27T16:39:19.361Z,101274.28
2023-04-27T16:41:46.775Z,101275.75
2023-04-27T16:44:14.822Z,101279.91
2023-04-27T16:46:42.321Z,101274.50
2023-04-27T16:49:10.288Z,101274.56
2023-04-27T16:51:37.461Z,101281.09
2023-04-27T16:54:04.519Z,101275.00
2023-04-27T16:56:35.603Z,101273.84
2023-04-27T16:59:04.191Z,101276.25
2023-04-27T17:01:31.396Z,101280.00
2023-04-27T17:04:01.081Z,101277.53
2023-04-27T17:06:29.889Z,101279.06
2023-04-27T17:08:57.865Z,101269.22
2023-04-27T17:11:25.192Z,101278.44
2023-04-27T17:13:55.459Z,101281.47
2023-04-27T17:16:23.488Z,101276.59
2023-04-27T17:18:50.752Z,101276.66
2023-04-27T17:21:20.144Z,101278.34
2023-04-27T17:23:51.610Z,101279.66
2023-04-27T17:26:21.383Z,101283.19
2023-04-27T17:28:49.541Z,101285.22
2023-04-27T17:31:52.565Z,101292.09
2023-04-27T17:34:22.719Z,101287.13
2023-04-27T17:36:49.798Z,101288.94
2023-04-27T17:39:17.562Z,101288.03
2023-04-27T17:41:45.450Z,101288.34
2023-04-27T17:44:12.797Z,101293.03
2023-04-27T17:46:45.819Z,101282.38
2023-04-27T17:49:13.644Z,101287.41
2023-04-27T17:51:41.413Z,101284.13
2023-04-27T17:54:08.711Z,101285.88
2023-04-27T17:56:35.862Z,101284.47
2023-04-27T17:59:04.293Z,101290.13
2023-04-27T18:01:31.441Z,101289.53
2023-04-27T18:04:01.107Z,101288.31
2023-04-27T18:06:32.016Z,101289.84
2023-04-27T18:08:59.645Z,101288.00
2023-04-27T18:11:26.890Z,101293.44
2023-04-27T18:13:58.180Z,101297.78
2023-04-27T18:16:25.747Z,101301.50
2023-04-27T18:18:52.982Z,101304.56
2023-04-27T18:21:20.380Z,101306.28
2023-04-27T18:23:47.466Z,101304.44
2023-04-27T18:26:14.707Z,101317.84
2023-04-27T18:28:41.850Z,101313.22
2023-04-27T18:31:19.087Z,101318.81
2023-04-27T18:33:47.084Z,101322.69
2023-04-27T18:36:14.296Z,101324.84
2023-04-27T18:38:41.486Z,101326.56
2023-04-27T18:41:08.611Z,101326.25
2023-04-27T18:43:36.766Z,101339.41
2023-04-27T18:46:04.887Z,101341.88
2023-04-27T18:48:32.576Z,101344.00
2023-04-27T18:50:59.907Z,101341.50
2023-04-27T18:53:28.205Z,101340.59
2023-04-27T18:55:55.564Z,101339.88
2023-04-27T18:58:23.613Z,101345.47
2023-04-27T19:00:50.791Z,101348.56
2023-04-27T19:03:17.965Z,101353.50
2023-04-27T19:05:45.986Z,101356.00
2023-04-27T19:08:13.062Z,101349.22
2023-04-27T19:10:41.450Z,101344.78
2023-04-27T19:13:08.640Z,101344.44
2023-04-27T19:15:35.826Z,101349.94
2023-04-27T19:18:10.413Z,101354.22
2023-04-27T19:20:39.550Z,101352.44
2023-04-27T19:23:09.159Z,101356.97
2023-04-27T19:25:36.719Z,101353.16
2023-04-27T19:28:05.695Z,101348.59
2023-04-27T19:30:32.820Z,101346.72
2023-04-27T19:33:00.223Z,101353.47
2023-04-27T19:35:27.520Z,101349.25
2023-04-27T19:37:54.702Z,101348.47
2023-04-27T19:40:21.873Z,101342.41
2023-04-27T19:42:49.783Z,101343.34
2023-04-27T19:45:17.970Z,101351.78
2023-04-27T19:47:45.918Z,101355.22
2023-04-27T19:50:13.133Z,101347.31
2023-04-27T19:52:40.593Z,101359.97
2023-04-27T19:55:08.483Z,101356.25
2023-04-27T19:57:36.699Z,101357.19
2023-04-27T20:00:06.833Z,101357.88
2023-04-27T20:02:34.083Z,101357.56
2023-04-27T20:05:01.730Z,101360.19
2023-04-27T20:07:29.180Z,101355.81
2023-04-27T20:09:59.300Z,101351.91
2023-04-27T20:12:47.515Z,101351.16
2023-04-27T20:15:14.141Z,101345.78
2023-04-27T20:17:42.218Z,101346.41
2023-04-27T20:20:10.910Z,101341.31
2023-04-27T20:22:38.813Z,101345.50
2023-04-27T20:25:07.833Z,101347.41
2023-04-27T20:27:35.726Z,101352.31
2023-04-27T20:30:03.563Z,101353.34
2023-04-27T20:32:30.803Z,101355.13
2023-04-27T20:34:58.880Z,101351.81
2023-04-27T20:37:26.918Z,101351.63
2023-04-27T20:39:54.522Z,101345.63
2023-04-27T20:42:21.572Z,101347.69
2023-04-27T20:44:48.825Z,101347.75
2023-04-27T20:47:18.802Z,101347.34
2023-04-27T20:49:46.276Z,101340.81
2023-04-27T20:52:13.412Z,101348.59
2023-04-27T20:54:40.971Z,101342.56
2023-04-27T20:57:13.302Z,101346.22
2023-04-27T20:59:43.801Z,101338.25
2023-04-27T21:02:10.916Z,101342.06
2023-04-27T21:04:38.426Z,101341.38
2023-04-27T21:07:08.093Z,101331.81
2023-04-27T21:09:36.328Z,101332.59
2023-04-27T21:12:03.463Z,101331.44
2023-04-27T21:14:31.159Z,101329.69
2023-04-27T21:16:58.319Z,101333.63
2023-04-27T21:19:25.598Z,101333.22
2023-04-27T21:21:52.660Z,101330.72
2023-04-27T21:24:19.954Z,101337.16
2023-04-27T21:26:47.103Z,101331.94
2023-04-27T21:29:14.124Z,101326.34
2023-04-27T21:31:41.278Z,101326.88
2023-04-27T21:34:08.765Z,101324.63
2023-04-27T21:36:37.150Z,101331.25
2023-04-27T21:39:05.016Z,101331.00
2023-04-27T21:41:33.887Z,101327.84
2023-04-27T21:44:01.040Z,101328.34
2023-04-27T21:46:28.131Z,101320.88
2023-04-27T21:48:55.354Z,101321.81
2023-04-27T21:51:22.452Z,101321.69
2023-04-27T21:53:49.860Z,101324.66
2023-04-27T21:56:16.901Z,101320.69
2023-04-27T21:58:44.524Z,101330.25
2023-04-27T22:01:13.057Z,101330.34
2023-04-27T22:03:40.809Z,101325.16
2023-04-27T22:06:09.022Z,101326.03
2023-04-27T22:08:36.406Z,101321.22
2023-04-27T22:11:03.494Z,101331.50
2023-04-27T22:13:30.806Z,101326.09
2023-04-27T22:15:58.004Z,101327.16
2023-04-27T22:18:25.709Z,101323.47
2023-04-27T22:20:56.255Z,101332.03
2023-04-27T22:23:26.530Z,101328.06
2023-04-27T22:25:55.996Z,101333.72
2023-04-27T22:28:23.621Z,101330.72
2023-04-27T22:30:50.872Z,101329.84
2023-04-27T22:33:18.507Z,101328.34
2023-04-27T22:35:46.128Z,101332.44
2023-04-27T22:38:14.184Z,101330.44
2023-04-27T22:40:41.364Z,101338.25
2023-04-27T22:43:08.400Z,101339.56
2023-04-27T22:45:38.093Z,101338.84
2023-04-27T22:48:06.656Z,101335.09
2023-04-27T22:50:34.133Z,101343.78
2023-04-27T22:53:01.298Z,101342.34
2023-04-27T22:55:28.445Z,101343.81
2023-04-27T22:57:55.649Z,101331.38
2023-04-27T23:00:22.747Z,101330.78
2023-04-27T23:02:50.066Z,101328.00
2023-04-27T23:05:17.652Z,101319.34
2023-04-27T23:07:46.237Z,101325.19
2023-04-27T23:10:15.045Z,101323.00
2023-04-27T23:12:42.272Z,101320.75
2023-04-27T23:15:10.604Z,101318.84
2023-04-27T23:17:38.093Z,101324.03
2023-04-27T23:20:11.146Z,101321.34
2023-04-27T23:22:44.772Z,101314.88
2023-04-27T23:25:12.088Z,101319.09
2023-04-27T23:27:39.187Z,101316.22
2023-04-27T23:30:08.118Z,101318.09
2023-04-27T23:32:36.746Z,101307.13
2023-04-27T23:35:04.681Z,101313.66
2023-04-27T23:37:31.769Z,101307.47
2023-04-27T23:39:58.827Z,101307.03
2023-04-27T23:42:25.889Z,101302.75
2023-04-27T23:44:53.162Z,101305.50
2023-04-27T23:47:20.203Z,101297.66
2023-04-27T23:49:47.277Z,101294.06
2023-04-27T23:52:14.342Z,101291.56
2023-04-27T23:54:41.441Z,101294.69
2023-04-27T23:57:08.561Z,101288.34
2023-04-27T23:59:36.382Z,101299.81
